createdAt,value
2023-05-24T00:02:17.200Z,7.00
2023-05-24T00:04:45.388Z,7.00
2023-05-24T00:07:12.575Z,7.00
2023-05-24T00:09:39.672Z,6.90
2023-05-24T00:12:06.703Z,6.90
2023-05-24T00:14:33.670Z,6.80
2023-05-24T00:17:00.521Z,6.80
2023-05-24T00:19:27.493Z,6.80
2023-05-24T00:21:54.246Z,6.70
2023-05-24T00:24:21.104Z,6.80
2023-05-24T00:26:48.484Z,6.70
2023-05-24T00:29:15.332Z,6.70
2023-05-24T00:31:42.237Z,6.70
2023-05-24T00:34:08.934Z,6.70
2023-05-24T00:36:38.256Z,6.70
2023-05-24T00:39:05.862Z,6.70
2023-05-24T00:41:32.965Z,6.70
2023-05-24T00:43:59.678Z,6.70
2023-05-24T00:46:30.149Z,6.60
2023-05-24T00:48:57.609Z,6.60
2023-05-24T00:51:27.229Z,6.60
2023-05-24T00:53:54.964Z,6.60
2023-05-24T00:56:22.463Z,6.60
2023-05-24T00:58:50.766Z,6.60
2023-05-24T01:01:18.211Z,6.60
2023-05-24T01:03:46.363Z,6.60
2023-05-24T01:06:15.963Z,6.50
2023-05-24T01:09:06.578Z,6.50
2023-05-24T01:12:03.777Z,6.40
2023-05-24T01:14:36.685Z,6.40
2023-05-24T01:17:27.212Z,6.40
2023-05-24T01:20:08.809Z,6.30
2023-05-24T01:23:17.431Z,6.30
2023-05-24T01:26:06.317Z,6.20
2023-05-24T01:28:35.335Z,6.20
2023-05-24T01:31:02.647Z,6.20
2023-05-24T01:33:29.696Z,6.10
2023-05-24T01:35:56.401Z,6.10
2023-05-24T01:38:23.154Z,6.10
2023-05-24T01:40:55.995Z,6.10
2023-05-24T01:43:33.847Z,6.00
2023-05-24T01:46:22.634Z,6.00
2023-05-24T01:49:05.785Z,5.90
2023-05-24T01:51:49.025Z,5.90
2023-05-24T01:54:21.022Z,5.80
2023-05-24T01:56:49.045Z,5.80
2023-05-24T01:59:16.425Z,5.80
2023-05-24T02:01:43.317Z,5.70
2023-05-24T02:04:10.195Z,5.70
2023-05-24T02:06:38.148Z,5.70
2023-05-24T02:09:04.931Z,5.70
2023-05-24T02:11:32.555Z,5.70
2023-05-24T02:13:59.245Z,5.70
2023-05-24T02:16:26.989Z,5.70
2023-05-24T02:18:53.960Z,5.70
2023-05-24T02:21:20.887Z,5.70
2023-05-24T02:23:47.796Z,5.70
2023-05-24T02:26:14.741Z,5.60
2023-05-24T02:28:41.625Z,5.60
2023-05-24T02:31:08.604Z,5.60
2023-05-24T02:33:35.429Z,5.50
2023-05-24T02:36:02.353Z,5.50
2023-05-24T02:38:29.101Z,5.50
2023-05-24T02:40:56.131Z,5.40
2023-05-24T02:43:22.874Z,5.40
2023-05-24T02:45:49.643Z,5.40
2023-05-24T02:48:16.446Z,5.40
2023-05-24T02:50:43.198Z,5.40
2023-05-24T02:53:10.104Z,5.40
2023-05-24T02:55:37.322Z,5.40
2023-05-24T02:58:03.983Z,5.40
2023-05-24T03:00:30.873Z,5.30
2023-05-24T03:03:00.817Z,5.30
2023-05-24T03:05:27.657Z,5.30
2023-05-24T03:07:54.361Z,5.20
2023-05-24T03:10:21.042Z,5.30
2023-05-24T03:12:47.710Z,5.20
2023-05-24T03:15:14.467Z,5.20
2023-05-24T03:17:41.181Z,5.20
2023-05-24T03:20:08.355Z,5.20
2023-05-24T03:22:35.137Z,5.20
2023-05-24T03:25:01.945Z,5.20
2023-05-24T03:27:28.695Z,5.20
2023-05-24T03:29:55.716Z,5.10
2023-05-24T03:32:22.405Z,5.10
2023-05-24T03:34:49.128Z,5.20
2023-05-24T03:37:15.907Z,5.20
2023-05-24T03:39:42.796Z,5.20
2023-05-24T03:42:09.651Z,5.20
2023-05-24T03:44:36.564Z,5.20
2023-05-24T03:47:03.829Z,5.20
2023-05-24T03:49:31.676Z,5.30
2023-05-24T03:51:58.364Z,5.30
2023-05-24T03:54:25.073Z,5.30
2023-05-24T03:56:53.326Z,5.40
2023-05-24T03:59:21.700Z,5.40
2023-05-24T04:01:48.403Z,5.50
2023-05-24T04:04:15.300Z,5.60
2023-05-24T04:06:42.117Z,5.70
2023-05-24T04:09:10.031Z,5.70
2023-05-24T04:11:36.808Z,5.90
2023-05-24T04:14:03.772Z,6.00
2023-05-24T04:16:34.052Z,6.10
2023-05-24T04:19:03.844Z,6.20
2023-05-24T04:21:31.970Z,6.20
2023-05-24T04:24:01.456Z,6.30
2023-05-24T04:26:28.282Z,6.40
2023-05-24T04:28:54.995Z,6.40
2023-05-24T04:31:21.942Z,6.50
2023-05-24T04:33:50.008Z,6.60
2023-05-24T04:36:17.714Z,6.70
2023-05-24T04:38:46.234Z,6.70
2023-05-24T04:41:13.446Z,6.80
2023-05-24T04:43:40.713Z,6.90
2023-05-24T04:46:09.140Z,6.90
2023-05-24T04:48:36.536Z,7.00
2023-05-24T04:51:03.311Z,7.00
2023-05-24T04:53:30.474Z,7.10
2023-05-24T04:55:57.275Z,7.10
2023-05-24T04:58:23.938Z,7.20
2023-05-24T05:00:50.749Z,7.20
2023-05-24T05:03:17.617Z,7.30
2023-05-24T05:05:45.198Z,7.30
2023-05-24T05:08:11.899Z,7.30
2023-05-24T05:10:38.549Z,7.30
2023-05-24T05:13:05.291Z,7.40
2023-05-24T05:15:32.693Z,7.50
2023-05-24T05:17:59.615Z,7.50
2023-05-24T05:20:26.397Z,7.60
2023-05-24T05:22:53.174Z,7.60
2023-05-24T05:25:19.973Z,7.60
2023-05-24T05:27:46.689Z,7.70
2023-05-24T05:30:13.786Z,7.70
2023-05-24T05:32:40.698Z,7.80
2023-05-24T05:35:07.999Z,7.80
2023-05-24T05:37:34.667Z,7.90
2023-05-24T05:40:01.435Z,7.90
2023-05-24T05:42:28.187Z,8.00
2023-05-24T05:44:55.062Z,8.00
2023-05-24T05:47:21.800Z,8.00
2023-05-24T05:49:48.525Z,8.00
2023-05-24T05:52:15.297Z,8.10
2023-05-24T05:54:42.100Z,8.00
2023-05-24T05:57:11.352Z,8.10
2023-05-24T05:59:38.321Z,8.00
2023-05-24T06:02:06.630Z,8.10
2023-05-24T06:04:33.949Z,8.00
2023-05-24T06:07:00.709Z,8.10
2023-05-24T06:09:27.518Z,8.10
2023-05-24T06:11:54.374Z,8.00
2023-05-24T06:14:25.005Z,8.10
2023-05-24T06:16:52.360Z,8.10
2023-05-24T06:19:19.170Z,8.10
2023-05-24T06:21:48.061Z,8.20
2023-05-24T06:24:20.391Z,8.30
2023-05-24T06:26:51.440Z,8.40
2023-05-24T06:29:22.532Z,8.60
2023-05-24T06:31:50.208Z,8.60
2023-05-24T06:34:20.961Z,8.80
2023-05-24T06:36:48.610Z,8.90
2023-05-24T06:39:16.166Z,9.00
2023-05-24T06:41:44.364Z,9.10
2023-05-24T06:44:11.186Z,9.10
2023-05-24T06:46:38.048Z,9.10
2023-05-24T06:49:04.906Z,9.10
2023-05-24T06:51:33.820Z,9.10
2023-05-24T06:54:01.053Z,9.20
2023-05-24T06:56:28.864Z,9.20
2023-05-24T06:58:56.600Z,9.20
2023-05-24T07:01:23.446Z,9.20
2023-05-24T07:03:50.292Z,9.30
2023-05-24T07:06:17.162Z,9.40
2023-05-24T07:08:43.890Z,9.30
2023-05-24T07:11:10.981Z,9.30
2023-05-24T07:13:37.750Z,9.40
2023-05-24T07:16:04.677Z,9.50
2023-05-24T07:18:31.650Z,9.60
2023-05-24T07:20:58.350Z,9.60
2023-05-24T07:23:25.382Z,9.60
2023-05-24T07:25:52.730Z,9.70
2023-05-24T07:28:20.272Z,9.80
2023-05-24T07:30:47.288Z,9.90
2023-05-24T07:33:14.197Z,10.00
2023-05-24T07:35:41.788Z,10.10
2023-05-24T07:38:08.902Z,10.20
2023-05-24T07:40:35.665Z,10.70
2023-05-24T07:43:04.094Z,10.90
2023-05-24T07:45:31.751Z,11.00
2023-05-24T07:47:58.898Z,11.20
2023-05-24T07:50:26.406Z,11.60
2023-05-24T07:52:53.112Z,11.90
2023-05-24T07:55:19.973Z,11.70
2023-05-24T07:57:46.741Z,11.80
2023-05-24T08:00:16.655Z,12.20
2023-05-24T08:02:46.861Z,12.80
2023-05-24T08:05:14.381Z,13.20
2023-05-24T08:07:41.935Z,13.20
2023-05-24T08:10:13.549Z,13.20
2023-05-24T08:12:40.678Z,12.90
2023-05-24T08:15:08.069Z,12.50
2023-05-24T08:17:34.823Z,12.20
2023-05-24T08:20:02.062Z,12.00
2023-05-24T08:22:28.772Z,11.80
2023-05-24T08:24:55.498Z,11.70
2023-05-24T08:27:22.537Z,11.60
2023-05-24T08:29:49.292Z,11.40
2023-05-24T08:32:16.086Z,11.30
2023-05-24T08:34:44.232Z,11.30
2023-05-24T08:37:12.639Z,11.20
2023-05-24T08:39:40.401Z,11.30
2023-05-24T08:42:09.201Z,11.30
2023-05-24T08:44:45.344Z,11.30
2023-05-24T08:47:13.845Z,11.30
2023-05-24T08:49:42.529Z,11.20
2023-05-24T08:52:11.597Z,11.20
2023-05-24T08:54:40.383Z,11.30
2023-05-24T08:57:07.536Z,11.40
2023-05-24T08:59:34.452Z,11.80
2023-05-24T09:02:02.649Z,12.30
2023-05-24T09:04:30.906Z,12.80
2023-05-24T09:06:58.438Z,13.20
2023-05-24T09:09:28.936Z,13.40
2023-05-24T09:11:58.640Z,13.30
2023-05-24T09:14:25.883Z,13.20
2023-05-24T09:16:52.831Z,13.10
2023-05-24T09:19:20.764Z,12.80
2023-05-24T09:21:49.783Z,12.70
2023-05-24T09:24:17.028Z,12.50
2023-05-24T09:26:43.729Z,12.50
2023-05-24T09:29:10.490Z,12.50
2023-05-24T09:31:39.515Z,12.70
2023-05-24T09:34:11.568Z,12.90
2023-05-24T09:36:45.056Z,13.20
2023-05-24T09:39:12.006Z,13.70
2023-05-24T09:41:39.276Z,14.00
2023-05-24T09:44:06.474Z,14.50
2023-05-24T09:46:38.506Z,15.00
2023-05-24T09:49:08.095Z,15.40
2023-05-24T09:51:38.797Z,15.30
2023-05-24T09:54:06.304Z,15.20
2023-05-24T09:56:36.196Z,14.90
2023-05-24T09:59:09.885Z,14.60
2023-05-24T10:01:37.030Z,14.30
2023-05-24T10:04:09.372Z,14.20
2023-05-24T10:06:38.508Z,14.10
2023-05-24T10:09:09.611Z,14.30
2023-05-24T10:11:37.413Z,14.40
2023-05-24T10:14:09.764Z,14.40
2023-05-24T10:16:38.436Z,14.60
2023-05-24T10:19:07.295Z,14.70
2023-05-24T10:21:38.894Z,15.10
2023-05-24T10:24:09.132Z,15.40
2023-05-24T10:26:37.473Z,15.70
2023-05-24T10:29:16.509Z,15.70
2023-05-24T10:31:45.000Z,15.40
2023-05-24T10:34:12.212Z,15.00
2023-05-24T10:36:40.522Z,14.60
2023-05-24T10:39:12.228Z,14.70
2023-05-24T10:41:43.397Z,14.90
2023-05-24T10:44:18.204Z,15.00
2023-05-24T10:47:26.462Z,15.10
2023-05-24T10:49:59.261Z,15.40
2023-05-24T10:52:36.675Z,15.50
2023-05-24T10:55:08.453Z,15.80
2023-05-24T10:57:36.260Z,16.00
2023-05-24T11:03:02.607Z,16.20
2023-05-24T11:05:36.466Z,16.30
2023-05-24T11:08:09.174Z,16.30
2023-05-24T11:10:36.213Z,16.30
2023-05-24T11:13:04.000Z,16.40
2023-05-24T11:15:31.025Z,16.30
2023-05-24T11:18:09.984Z,16.10
2023-05-24T11:20:37.169Z,16.00
2023-05-24T11:23:05.267Z,15.70
2023-05-24T11:25:33.846Z,15.70
2023-05-24T11:28:11.023Z,15.70
2023-05-24T11:30:45.560Z,15.70
2023-05-24T11:33:25.524Z,15.40
2023-05-24T11:35:54.852Z,15.20
2023-05-24T11:38:24.826Z,15.10
2023-05-24T11:40:52.136Z,14.90
2023-05-24T11:43:20.714Z,14.70
2023-05-24T11:45:50.112Z,14.60
2023-05-24T11:48:18.750Z,14.50
2023-05-24T11:50:50.216Z,14.70
2023-05-24T11:53:20.907Z,14.60
2023-05-24T11:55:48.701Z,14.60
2023-05-24T11:58:18.635Z,14.90
2023-05-24T12:00:47.053Z,15.20
2023-05-24T12:03:13.981Z,15.30
2023-05-24T12:05:40.915Z,15.30
2023-05-24T12:08:12.392Z,15.30
2023-05-24T12:10:42.672Z,15.10
2023-05-24T12:13:25.454Z,15.00
2023-05-24T12:15:56.938Z,14.90
2023-05-24T12:18:26.151Z,14.70
2023-05-24T12:20:53.251Z,14.60
2023-05-24T12:23:23.178Z,14.50
2023-05-24T12:25:50.398Z,14.60
2023-05-24T12:28:21.801Z,14.80
2023-05-24T12:30:50.112Z,15.10
2023-05-24T12:33:19.825Z,15.40
2023-05-24T12:35:48.070Z,15.60
2023-05-24T12:38:15.332Z,15.70
2023-05-24T12:40:44.326Z,15.70
2023-05-24T12:43:14.868Z,15.80
2023-05-24T12:45:41.713Z,15.70
2023-05-24T12:48:08.987Z,15.80
2023-05-24T12:50:35.872Z,16.00
2023-05-24T12:53:03.476Z,16.20
2023-05-24T12:55:30.766Z,16.30
2023-05-24T13:00:45.790Z,16.00
2023-05-24T13:03:26.895Z,15.60
2023-05-24T13:06:04.854Z,15.40
2023-05-24T13:08:32.089Z,15.30
2023-05-24T13:10:59.707Z,15.20
2023-05-24T13:13:28.968Z,15.20
2023-05-24T13:15:58.909Z,15.40
2023-05-24T13:18:26.323Z,15.50
2023-05-24T13:20:54.125Z,15.40
2023-05-24T13:23:21.363Z,15.50
2023-05-24T13:25:48.256Z,15.60
2023-05-24T13:28:15.149Z,15.70
2023-05-24T13:30:42.225Z,15.70
2023-05-24T13:33:09.262Z,15.70
2023-05-24T13:35:36.088Z,15.80
2023-05-24T13:38:02.850Z,16.00
2023-05-24T13:40:29.691Z,16.30
2023-05-24T13:42:57.249Z,16.40
2023-05-24T13:45:24.752Z,16.30
2023-05-24T13:47:51.884Z,16.30
2023-05-24T13:50:18.885Z,16.30
2023-05-24T13:52:45.920Z,16.30
2023-05-24T13:55:16.465Z,16.30
2023-05-24T13:57:51.650Z,16.40
2023-05-24T14:00:19.430Z,16.40
2023-05-24T14:02:46.839Z,16.50
2023-05-24T14:05:27.005Z,16.70
2023-05-24T14:07:55.746Z,16.50
2023-05-24T14:10:22.815Z,16.40
2023-05-24T14:13:03.545Z,16.20
2023-05-24T14:15:36.918Z,16.10
2023-05-24T14:18:07.800Z,16.10
2023-05-24T14:20:38.235Z,16.20
2023-05-24T14:23:06.440Z,16.30
2023-05-24T14:25:34.010Z,16.50
2023-05-24T14:28:01.009Z,16.60
2023-05-24T14:30:27.747Z,16.70
2023-05-24T14:32:54.515Z,16.60
2023-05-24T14:35:21.267Z,16.60
2023-05-24T14:37:48.037Z,16.60
2023-05-24T14:40:17.015Z,16.50
2023-05-24T14:42:45.131Z,16.30
2023-05-24T14:45:12.665Z,16.20
2023-05-24T14:47:39.373Z,16.10
2023-05-24T14:50:07.047Z,16.30
2023-05-24T14:52:33.813Z,16.20
2023-05-24T14:55:00.681Z,16.30
2023-05-24T14:57:27.417Z,16.60
2023-05-24T14:59:54.127Z,16.60
2023-05-24T15:02:20.995Z,16.40
2023-05-24T15:04:49.018Z,16.10
2023-05-24T15:07:16.083Z,15.90
2023-05-24T15:09:47.874Z,15.60
2023-05-24T15:12:15.019Z,15.60
2023-05-24T15:14:41.965Z,15.50
2023-05-24T15:17:09.647Z,15.40
2023-05-24T15:19:36.716Z,15.20
2023-05-24T15:22:03.492Z,15.10
2023-05-24T15:24:30.250Z,15.10
2023-05-24T15:26:57.419Z,15.00
2023-05-24T15:29:24.185Z,14.90
2023-05-24T15:31:50.910Z,15.10
2023-05-24T15:34:17.809Z,15.40
2023-05-24T15:36:45.841Z,15.80
2023-05-24T15:39:12.775Z,16.00
2023-05-24T15:41:39.601Z,16.30
2023-05-24T15:44:09.043Z,16.50
2023-05-24T15:46:39.152Z,16.70
2023-05-24T15:49:06.091Z,16.60
2023-05-24T15:52:02.691Z,16.50
2023-05-24T15:54:19.801Z,16.30
2023-05-24T15:56:46.785Z,16.20
2023-05-24T15:59:13.561Z,15.70
2023-05-24T16:01:41.501Z,15.60
2023-05-24T16:04:08.310Z,15.60
2023-05-24T16:06:35.103Z,15.70
2023-05-24T16:09:01.954Z,15.80
2023-05-24T16:11:28.776Z,15.90
2023-05-24T16:13:56.864Z,16.10
2023-05-24T16:16:23.752Z,16.20
2023-05-24T16:18:51.139Z,16.30
2023-05-24T16:21:17.888Z,16.40
2023-05-24T16:23:44.580Z,16.50
2023-05-24T16:26:11.497Z,16.50
2023-05-24T16:28:38.247Z,16.40
2023-05-24T16:31:05.044Z,16.30
2023-05-24T16:33:31.760Z,16.30
2023-05-24T16:36:03.026Z,16.30
2023-05-24T16:38:30.360Z,16.30
2023-05-24T16:40:57.015Z,16.40
2023-05-24T16:43:23.776Z,16.30
2023-05-24T16:45:51.735Z,16.10
2023-05-24T16:48:21.348Z,15.90
2023-05-24T16:50:50.441Z,15.60
2023-05-24T16:53:17.315Z,15.40
2023-05-24T16:55:44.343Z,15.20
2023-05-24T16:58:11.132Z,15.00
2023-05-24T17:00:37.849Z,14.80
2023-05-24T17:03:04.643Z,14.70
2023-05-24T17:05:31.459Z,14.50
2023-05-24T17:07:58.244Z,14.40
2023-05-24T17:10:24.886Z,14.40
2023-05-24T17:12:51.643Z,14.30
2023-05-24T17:15:18.400Z,14.20
2023-05-24T17:17:45.523Z,14.20
2023-05-24T17:20:14.019Z,14.20
2023-05-24T17:22:41.030Z,14.10
2023-05-24T17:25:08.454Z,14.10
2023-05-24T17:27:35.214Z,13.90
2023-05-24T17:30:02.013Z,13.90
2023-05-24T17:32:28.835Z,13.90
2023-05-24T17:34:55.674Z,13.80
2023-05-24T17:37:22.469Z,13.70
2023-05-24T17:39:52.305Z,13.70
2023-05-24T17:42:19.388Z,13.60
2023-05-24T17:44:46.299Z,13.60
2023-05-24T17:47:13.082Z,13.50
2023-05-24T17:49:39.855Z,13.50
2023-05-24T17:52:07.152Z,13.50
2023-05-24T17:54:34.177Z,13.50
2023-05-24T17:57:01.773Z,13.60
2023-05-24T17:59:28.578Z,13.50
2023-05-24T18:01:55.296Z,13.60
2023-05-24T18:04:22.077Z,13.50
2023-05-24T18:06:48.901Z,13.50
2023-05-24T18:09:16.921Z,13.40
2023-05-24T18:11:43.735Z,13.40
2023-05-24T18:14:10.816Z,13.40
2023-05-24T18:16:37.773Z,13.30
2023-05-24T18:19:04.599Z,13.20
2023-05-24T18:21:32.460Z,13.10
2023-05-24T18:23:59.168Z,13.10
2023-05-24T18:26:26.238Z,13.10
2023-05-24T18:28:52.995Z,13.10
2023-05-24T18:31:20.431Z,13.00
2023-05-24T18:33:47.382Z,12.90
2023-05-24T18:36:14.216Z,12.80
2023-05-24T18:38:41.026Z,12.80
2023-05-24T18:41:12.295Z,12.80
2023-05-24T18:43:39.509Z,12.70
2023-05-24T18:46:06.368Z,12.70
2023-05-24T18:48:33.098Z,12.70
2023-05-24T18:50:59.856Z,12.60
2023-05-24T18:53:26.709Z,12.60
2023-05-24T18:55:53.666Z,12.50
2023-05-24T18:58:20.403Z,12.40
2023-05-24T19:00:47.736Z,12.40
2023-05-24T19:03:14.738Z,12.40
2023-05-24T19:05:43.909Z,12.30
2023-05-24T19:08:11.122Z,12.20
2023-05-24T19:10:37.886Z,12.10
2023-05-24T19:13:05.883Z,12.10
2023-05-24T19:15:34.388Z,12.10
2023-05-24T19:18:01.707Z,12.00
2023-05-24T19:20:28.621Z,11.90
2023-05-24T19:22:56.239Z,11.90
2023-05-24T19:25:23.084Z,11.80
2023-05-24T19:27:59.501Z,11.80
2023-05-24T19:30:27.390Z,11.80
2023-05-24T19:32:54.400Z,11.70
2023-05-24T19:35:21.524Z,11.60
2023-05-24T19:37:48.333Z,11.60
2023-05-24T19:40:15.294Z,11.50
2023-05-24T19:42:43.517Z,11.50
2023-05-24T19:45:12.013Z,11.40
2023-05-24T19:47:39.767Z,11.40
2023-05-24T19:50:07.497Z,11.40
2023-05-24T19:52:34.245Z,11.40
2023-05-24T19:55:01.086Z,11.40
2023-05-24T19:57:27.846Z,11.30
2023-05-24T19:59:54.689Z,11.30
2023-05-24T20:02:22.296Z,11.20
2023-05-24T20:04:49.449Z,11.20
2023-05-24T20:07:16.244Z,11.10
2023-05-24T20:09:42.984Z,11.10
2023-05-24T20:12:09.846Z,11.00
2023-05-24T20:14:36.563Z,11.00
2023-05-24T20:17:03.687Z,11.00
2023-05-24T20:19:30.601Z,10.90
2023-05-24T20:21:58.185Z,10.90
2023-05-24T20:24:25.000Z,10.80
2023-05-24T20:26:51.830Z,10.80
2023-05-24T20:29:18.540Z,10.70
2023-05-24T20:31:47.042Z,10.60
2023-05-24T20:34:13.925Z,10.60
2023-05-24T20:36:43.375Z,10.60
2023-05-24T20:39:10.545Z,10.60
2023-05-24T20:41:37.384Z,10.50
2023-05-24T20:44:04.093Z,10.50
2023-05-24T20:46:30.911Z,10.50
2023-05-24T20:48:57.710Z,10.50
2023-05-24T20:51:24.685Z,10.50
2023-05-24T20:53:53.078Z,10.50
2023-05-24T20:56:21.366Z,10.40
2023-05-24T20:58:52.522Z,10.40
2023-05-24T21:01:20.238Z,10.40
2023-05-24T21:03:47.148Z,10.30
2023-05-24T21:06:13.935Z,10.30
2023-05-24T21:08:40.703Z,10.30
2023-05-24T21:11:07.426Z,10.30
2023-05-24T21:13:34.239Z,10.20
2023-05-24T21:16:02.128Z,10.20
2023-05-24T21:18:28.866Z,10.20
2023-05-24T21:20:55.638Z,10.20
2023-05-24T21:23:22.349Z,10.20
2023-05-24T21:25:49.228Z,10.20
2023-05-24T21:28:16.008Z,10.20
2023-05-24T21:30:42.781Z,10.10
2023-05-24T21:33:09.934Z,10.10
2023-05-24T21:35:37.411Z,10.00
2023-05-24T21:38:04.128Z,10.00
2023-05-24T21:40:30.832Z,9.90
2023-05-24T21:42:57.573Z,9.90
2023-05-24T21:45:24.287Z,9.80
2023-05-24T21:47:51.081Z,9.80
2023-05-24T21:50:17.835Z,9.80
2023-05-24T21:52:44.528Z,9.70
2023-05-24T21:55:11.265Z,9.70
2023-05-24T21:57:38.167Z,9.60
2023-05-24T22:00:05.484Z,9.60
2023-05-24T22:02:32.335Z,9.60
2023-05-24T22:04:59.139Z,9.50
2023-05-24T22:07:25.877Z,9.50
2023-05-24T22:09:52.647Z,9.40
2023-05-24T22:12:19.324Z,9.40
2023-05-24T22:14:46.101Z,9.40
2023-05-24T22:17:14.129Z,9.30
2023-05-24T22:19:41.201Z,9.30
2023-05-24T22:22:08.804Z,9.20
2023-05-24T22:24:35.822Z,9.20
2023-05-24T22:27:02.576Z,9.10
2023-05-24T22:29:29.366Z,9.10
2023-05-24T22:31:56.214Z,9.00
2023-05-24T22:34:29.262Z,9.00
2023-05-24T22:36:57.486Z,9.00
2023-05-24T22:39:24.938Z,9.00
2023-05-24T22:41:52.637Z,9.00
2023-05-24T22:44:19.714Z,9.00
2023-05-24T22:46:49.946Z,8.90
2023-05-24T22:49:19.669Z,8.90
2023-05-24T22:51:48.215Z,8.90
2023-05-24T22:54:15.676Z,8.90
2023-05-24T22:56:43.364Z,8.90
2023-05-24T22:59:11.207Z,8.80
2023-05-24T23:01:38.448Z,8.80
2023-05-24T23:04:19.689Z,8.80
2023-05-24T23:06:49.263Z,8.70
2023-05-24T23:09:17.574Z,8.70
2023-05-24T23:11:44.432Z,8.70
2023-05-24T23:14:11.466Z,8.70
2023-05-24T23:16:45.059Z,8.60
2023-05-24T23:19:13.441Z,8.60
2023-05-24T23:21:42.057Z,8.60
2023-05-24T23:24:14.214Z,8.50
2023-05-24T23:26:41.813Z,8.50
2023-05-24T23:29:08.907Z,8.50
2023-05-24T23:31:36.185Z,8.40
2023-05-24T23:34:03.885Z,8.40
2023-05-24T23:36:30.649Z,8.40
2023-05-24T23:38:57.385Z,8.40
2023-05-24T23:41:24.108Z,8.40
2023-05-24T23:43:52.314Z,8.30
2023-05-24T23:46:19.279Z,8.30
2023-05-24T23:48:46.181Z,8.30
2023-05-24T23:51:13.033Z,8.30
2023-05-24T23:53:40.028Z,8.20
2023-05-24T23:56:06.736Z,8.20
2023-05-24T23:58:33.988Z,8.20
